HVN1835 VVTS-VVPQ
Flight info
| Callsign | HVN1835 |
|---|---|
| Flight time | 0h 32m |
| Altitude | 16000 |
| Route | BACHU5A BACHU W17 TUNPO TIHAN1C |
| Aircraft | A321/M-SDE3FGHIRWY/LB1 |
Departure
| Time | 2026-04-25 14:53 |
|---|---|
| Airport | Tan Son Nhat International Airport (VVTS) |
Arrival
| Time | 2026-04-25 15:25 |
|---|---|
| Airport | Phú Quốc International Airport (VVPQ) |
| Time | Latitude | Longitude | Altitude | Speed | Heading |
|---|---|---|---|---|---|
| 2026-04-25 14:19 | 10.81258 | 106.65310 | 38 ft | 0 kts | 160° |
| 2026-04-25 14:43 | 10.81262 | 106.65309 | 37 ft | 2 kts | 160° |
| 2026-04-25 14:43 | 10.81280 | 106.65302 | 36 ft | 3 kts | 160° |
| 2026-04-25 14:43 | 10.81297 | 106.65295 | 35 ft | 3 kts | 144° |
| 2026-04-25 14:44 | 10.81309 | 106.65282 | 35 ft | 3 kts | 100° |
| 2026-04-25 14:44 | 10.81308 | 106.65263 | 35 ft | 3 kts | 70° |
| 2026-04-25 14:44 | 10.81303 | 106.65248 | 35 ft | 1 kts | 69° |
| 2026-04-25 14:44 | 10.81302 | 106.65247 | 35 ft | 0 kts | 69° |
| 2026-04-25 14:47 | 10.81303 | 106.65249 | 35 ft | 1 kts | 69° |
| 2026-04-25 14:47 | 10.81309 | 106.65265 | 35 ft | 6 kts | 69° |
| 2026-04-25 14:47 | 10.81336 | 106.65337 | 37 ft | 11 kts | 69° |
| 2026-04-25 14:47 | 10.81366 | 106.65419 | 37 ft | 14 kts | 70° |
| 2026-04-25 14:48 | 10.81403 | 106.65516 | 37 ft | 16 kts | 69° |
| 2026-04-25 14:48 | 10.81446 | 106.65628 | 37 ft | 18 kts | 69° |
| 2026-04-25 14:48 | 10.81491 | 106.65749 | 37 ft | 14 kts | 68° |
| 2026-04-25 14:48 | 10.81577 | 106.65797 | 37 ft | 16 kts | 7° |
| 2026-04-25 14:49 | 10.81687 | 106.65801 | 32 ft | 15 kts | 348° |
| 2026-04-25 14:49 | 10.81764 | 106.65821 | 33 ft | 12 kts | 56° |
| 2026-04-25 14:49 | 10.81798 | 106.65905 | 36 ft | 15 kts | 69° |
| 2026-04-25 14:49 | 10.81841 | 106.66020 | 37 ft | 19 kts | 69° |
| 2026-04-25 14:50 | 10.81891 | 106.66153 | 36 ft | 21 kts | 69° |
| 2026-04-25 14:50 | 10.81946 | 106.66297 | 37 ft | 22 kts | 69° |
| 2026-04-25 14:50 | 10.82004 | 106.66453 | 35 ft | 25 kts | 69° |
| 2026-04-25 14:50 | 10.82070 | 106.66626 | 34 ft | 27 kts | 69° |
| 2026-04-25 14:51 | 10.82139 | 106.66809 | 32 ft | 29 kts | 69° |
| 2026-04-25 14:51 | 10.82204 | 106.66982 | 35 ft | 14 kts | 68° |
| 2026-04-25 14:51 | 10.82285 | 106.66997 | 35 ft | 15 kts | 339° |
| 2026-04-25 14:51 | 10.82350 | 106.66912 | 35 ft | 16 kts | 276° |
| 2026-04-25 14:52 | 10.82343 | 106.66880 | 35 ft | 1 kts | 251° |
| 2026-04-25 14:52 | 10.82328 | 106.66840 | 33 ft | 24 kts | 249° |
| 2026-04-25 14:52 | 10.82152 | 106.66374 | 33 ft | 113 kts | 249° |
| 2026-04-25 14:52 | 10.81926 | 106.65777 | 39 ft | 159 kts | 249° |
| 2026-04-25 14:53 | 10.81335 | 106.64190 | 717 ft | 183 kts | 247° |
| 2026-04-25 14:53 | 10.80876 | 106.62971 | 1486 ft | 188 kts | 245° |
| 2026-04-25 14:53 | 10.80378 | 106.61678 | 1876 ft | 207 kts | 245° |
| 2026-04-25 14:53 | 10.79821 | 106.60240 | 2148 ft | 230 kts | 245° |
| 2026-04-25 14:54 | 10.79206 | 106.58644 | 2385 ft | 256 kts | 246° |
| 2026-04-25 14:54 | 10.78532 | 106.56883 | 2873 ft | 274 kts | 247° |
| 2026-04-25 14:54 | 10.77841 | 106.55057 | 3663 ft | 279 kts | 248° |
| 2026-04-25 14:54 | 10.77140 | 106.53197 | 4524 ft | 282 kts | 248° |
| 2026-04-25 14:55 | 10.76433 | 106.51324 | 5406 ft | 285 kts | 248° |
| 2026-04-25 14:55 | 10.75715 | 106.49430 | 6235 ft | 289 kts | 248° |
| 2026-04-25 14:55 | 10.74986 | 106.47509 | 7036 ft | 293 kts | 248° |
| 2026-04-25 14:55 | 10.74249 | 106.45570 | 7835 ft | 296 kts | 248° |
| 2026-04-25 14:56 | 10.73504 | 106.43609 | 8656 ft | 298 kts | 249° |
| 2026-04-25 14:56 | 10.72763 | 106.41657 | 9448 ft | 301 kts | 249° |
| 2026-04-25 14:56 | 10.72004 | 106.39655 | 10133 ft | 309 kts | 249° |
| 2026-04-25 14:56 | 10.71200 | 106.37537 | 10335 ft | 332 kts | 249° |
| 2026-04-25 14:57 | 10.70341 | 106.35277 | 10592 ft | 350 kts | 249° |
| 2026-04-25 14:57 | 10.69452 | 106.32941 | 11143 ft | 357 kts | 249° |
| 2026-04-25 14:57 | 10.68553 | 106.30572 | 11775 ft | 361 kts | 249° |
| 2026-04-25 14:57 | 10.67684 | 106.28164 | 12423 ft | 364 kts | 251° |
| 2026-04-25 14:58 | 10.66854 | 106.25722 | 13068 ft | 368 kts | 252° |
| 2026-04-25 14:58 | 10.66035 | 106.23246 | 13702 ft | 371 kts | 252° |
| 2026-04-25 14:58 | 10.65211 | 106.20750 | 14251 ft | 374 kts | 252° |
| 2026-04-25 14:58 | 10.64374 | 106.18232 | 14808 ft | 377 kts | 251° |
| 2026-04-25 14:59 | 10.63523 | 106.15695 | 15351 ft | 380 kts | 251° |
| 2026-04-25 14:59 | 10.62655 | 106.13137 | 15783 ft | 384 kts | 251° |
| 2026-04-25 14:59 | 10.61791 | 106.10605 | 15913 ft | 384 kts | 251° |
| 2026-04-25 14:59 | 10.60920 | 106.08056 | 15944 ft | 380 kts | 251° |
| 2026-04-25 15:00 | 10.60051 | 106.05513 | 15946 ft | 380 kts | 251° |
| 2026-04-25 15:00 | 10.59186 | 106.02972 | 15950 ft | 381 kts | 251° |
| 2026-04-25 15:00 | 10.58320 | 106.00423 | 15950 ft | 381 kts | 251° |
| 2026-04-25 15:00 | 10.57430 | 105.97878 | 15950 ft | 380 kts | 250° |
| 2026-04-25 15:01 | 10.56512 | 105.95352 | 15950 ft | 381 kts | 249° |
| 2026-04-25 15:01 | 10.55577 | 105.92835 | 15947 ft | 381 kts | 249° |
| 2026-04-25 15:01 | 10.54635 | 105.90316 | 15953 ft | 381 kts | 249° |
| 2026-04-25 15:01 | 10.53698 | 105.87796 | 15953 ft | 381 kts | 249° |
| 2026-04-25 15:02 | 10.52769 | 105.85272 | 15961 ft | 381 kts | 249° |
| 2026-04-25 15:02 | 10.51842 | 105.82740 | 15961 ft | 382 kts | 249° |
| 2026-04-25 15:02 | 10.50916 | 105.80208 | 15963 ft | 382 kts | 249° |
| 2026-04-25 15:02 | 10.50002 | 105.77708 | 15966 ft | 382 kts | 249° |
| 2026-04-25 15:03 | 10.49077 | 105.75175 | 15968 ft | 382 kts | 249° |
| 2026-04-25 15:03 | 10.48150 | 105.72641 | 15970 ft | 382 kts | 249° |
| 2026-04-25 15:03 | 10.47217 | 105.70099 | 15971 ft | 382 kts | 249° |
| 2026-04-25 15:03 | 10.46290 | 105.67571 | 15972 ft | 382 kts | 249° |
| 2026-04-25 15:04 | 10.45359 | 105.65038 | 15974 ft | 382 kts | 249° |
| 2026-04-25 15:04 | 10.44428 | 105.62507 | 15976 ft | 382 kts | 249° |
| 2026-04-25 15:04 | 10.43498 | 105.59978 | 15977 ft | 382 kts | 249° |
| 2026-04-25 15:04 | 10.42582 | 105.57481 | 15977 ft | 382 kts | 249° |
| 2026-04-25 15:05 | 10.41659 | 105.54957 | 15977 ft | 381 kts | 249° |
| 2026-04-25 15:05 | 10.40735 | 105.52430 | 15976 ft | 381 kts | 249° |
| 2026-04-25 15:05 | 10.39809 | 105.49904 | 15972 ft | 381 kts | 249° |
| 2026-04-25 15:06 | 10.37952 | 105.44858 | 15972 ft | 381 kts | 249° |
| 2026-04-25 15:06 | 10.37023 | 105.42338 | 15970 ft | 381 kts | 249° |
| 2026-04-25 15:06 | 10.36094 | 105.39819 | 15971 ft | 381 kts | 249° |
| 2026-04-25 15:06 | 10.35164 | 105.37299 | 15971 ft | 381 kts | 249° |
| 2026-04-25 15:07 | 10.34236 | 105.34782 | 15967 ft | 381 kts | 249° |
| 2026-04-25 15:07 | 10.33311 | 105.32260 | 15966 ft | 381 kts | 249° |
| 2026-04-25 15:07 | 10.32387 | 105.29737 | 15966 ft | 381 kts | 249° |
| 2026-04-25 15:07 | 10.31464 | 105.27217 | 15964 ft | 381 kts | 249° |
| 2026-04-25 15:08 | 10.30538 | 105.24697 | 15964 ft | 380 kts | 249° |
| 2026-04-25 15:08 | 10.29612 | 105.22185 | 15964 ft | 380 kts | 249° |
| 2026-04-25 15:08 | 10.28684 | 105.19672 | 15961 ft | 380 kts | 249° |
| 2026-04-25 15:08 | 10.27756 | 105.17162 | 15961 ft | 380 kts | 249° |
| 2026-04-25 15:09 | 10.26825 | 105.14649 | 15964 ft | 380 kts | 249° |
| 2026-04-25 15:09 | 10.25899 | 105.12144 | 15962 ft | 380 kts | 249° |
| 2026-04-25 15:09 | 10.24042 | 105.07119 | 15958 ft | 379 kts | 249° |
| 2026-04-25 15:10 | 10.23116 | 105.04611 | 15954 ft | 379 kts | 249° |
| 2026-04-25 15:10 | 10.22203 | 105.02136 | 15954 ft | 379 kts | 249° |
| 2026-04-25 15:10 | 10.20353 | 104.97125 | 15891 ft | 375 kts | 249° |
| 2026-04-25 15:11 | 10.19454 | 104.94694 | 15657 ft | 361 kts | 249° |
| 2026-04-25 15:11 | 10.18587 | 104.92345 | 15415 ft | 349 kts | 249° |
| 2026-04-25 15:11 | 10.17747 | 104.90072 | 15176 ft | 341 kts | 249° |
| 2026-04-25 15:12 | 10.16092 | 104.85600 | 14710 ft | 337 kts | 249° |
| 2026-04-25 15:12 | 10.15268 | 104.83375 | 14478 ft | 335 kts | 249° |
| 2026-04-25 15:12 | 10.14459 | 104.81185 | 14182 ft | 328 kts | 249° |
| 2026-04-25 15:12 | 10.14200 | 104.80482 | 14055 ft | 327 kts | 249° |
| 2026-04-25 15:13 | 10.12872 | 104.76888 | 13359 ft | 322 kts | 249° |
| 2026-04-25 15:13 | 10.11330 | 104.72729 | 12624 ft | 313 kts | 249° |
| 2026-04-25 15:13 | 10.10570 | 104.70673 | 12218 ft | 310 kts | 249° |
| 2026-04-25 15:14 | 10.09817 | 104.68637 | 11845 ft | 307 kts | 249° |
| 2026-04-25 15:14 | 10.09070 | 104.66615 | 11459 ft | 305 kts | 249° |
| 2026-04-25 15:14 | 10.08326 | 104.64611 | 11086 ft | 303 kts | 249° |
| 2026-04-25 15:14 | 10.07585 | 104.62617 | 10701 ft | 301 kts | 249° |
| 2026-04-25 15:15 | 10.06865 | 104.60626 | 10326 ft | 299 kts | 253° |
| 2026-04-25 15:15 | 10.06516 | 104.58555 | 9951 ft | 297 kts | 269° |
| 2026-04-25 15:15 | 10.06686 | 104.56461 | 9595 ft | 301 kts | 282° |
| 2026-04-25 15:15 | 10.07090 | 104.54374 | 9240 ft | 302 kts | 282° |
| 2026-04-25 15:16 | 10.07487 | 104.52289 | 8897 ft | 300 kts | 282° |
| 2026-04-25 15:16 | 10.07878 | 104.50213 | 8552 ft | 299 kts | 282° |
| 2026-04-25 15:16 | 10.08633 | 104.46163 | 8121 ft | 282 kts | 282° |
| 2026-04-25 15:17 | 10.09355 | 104.42296 | 7488 ft | 277 kts | 282° |
| 2026-04-25 15:17 | 10.09717 | 104.40367 | 6975 ft | 282 kts | 282° |
| 2026-04-25 15:17 | 10.10084 | 104.38407 | 6607 ft | 282 kts | 282° |
| 2026-04-25 15:18 | 10.10447 | 104.36464 | 6288 ft | 279 kts | 282° |
| 2026-04-25 15:18 | 10.11261 | 104.32670 | 5642 ft | 269 kts | 285° |
| 2026-04-25 15:18 | 10.11719 | 104.30892 | 5343 ft | 259 kts | 286° |
| 2026-04-25 15:19 | 10.12184 | 104.29138 | 5056 ft | 256 kts | 286° |
| 2026-04-25 15:19 | 10.12341 | 104.28550 | 4953 ft | 255 kts | 286° |
| 2026-04-25 15:19 | 10.13097 | 104.25695 | 4470 ft | 249 kts | 285° |
| 2026-04-25 15:19 | 10.13536 | 104.24009 | 4177 ft | 245 kts | 285° |
| 2026-04-25 15:20 | 10.13964 | 104.22349 | 3910 ft | 241 kts | 285° |
| 2026-04-25 15:20 | 10.14384 | 104.20716 | 3638 ft | 237 kts | 284° |
| 2026-04-25 15:20 | 10.14798 | 104.19105 | 3379 ft | 234 kts | 285° |
| 2026-04-25 15:20 | 10.15140 | 104.17509 | 3147 ft | 229 kts | 279° |
| 2026-04-25 15:21 | 10.15337 | 104.15924 | 2851 ft | 224 kts | 275° |
| 2026-04-25 15:21 | 10.15490 | 104.14380 | 2568 ft | 215 kts | 274° |
| 2026-04-25 15:21 | 10.15636 | 104.12899 | 2305 ft | 206 kts | 274° |
| 2026-04-25 15:21 | 10.15774 | 104.11506 | 2050 ft | 189 kts | 274° |
| 2026-04-25 15:22 | 10.15899 | 104.10251 | 1817 ft | 175 kts | 273° |
| 2026-04-25 15:22 | 10.16018 | 104.09053 | 1591 ft | 166 kts | 272° |
| 2026-04-25 15:22 | 10.16131 | 104.07917 | 1388 ft | 156 kts | 272° |
| 2026-04-25 15:22 | 10.16236 | 104.06860 | 1201 ft | 147 kts | 272° |
| 2026-04-25 15:23 | 10.16337 | 104.05839 | 1019 ft | 144 kts | 273° |
| 2026-04-25 15:23 | 10.16436 | 104.04841 | 836 ft | 139 kts | 273° |
| 2026-04-25 15:23 | 10.16524 | 104.03860 | 728 ft | 140 kts | 272° |
| 2026-04-25 15:23 | 10.16616 | 104.02883 | 548 ft | 138 kts | 276° |
| 2026-04-25 15:24 | 10.16720 | 104.01919 | 293 ft | 136 kts | 277° |
| 2026-04-25 15:24 | 10.16820 | 104.00973 | 133 ft | 135 kts | 276° |
| 2026-04-25 15:24 | 10.16912 | 104.00031 | 31 ft | 127 kts | 276° |
| 2026-04-25 15:24 | 10.16942 | 103.99746 | 28 ft | 114 kts | 276° |
| 2026-04-25 15:25 | 10.17028 | 103.98883 | 28 ft | 44 kts | 276° |
| 2026-04-25 15:25 | 10.17022 | 103.98711 | 24 ft | 33 kts | 255° |
| 2026-04-25 15:25 | 10.16952 | 103.98541 | 22 ft | 17 kts | 222° |
| 2026-04-25 15:25 | 10.16879 | 103.98623 | 23 ft | 16 kts | 94° |
| 2026-04-25 15:26 | 10.16871 | 103.98699 | 24 ft | 17 kts | 97° |
| 2026-04-25 15:26 | 10.16858 | 103.98825 | 25 ft | 19 kts | 96° |
| 2026-04-25 15:26 | 10.16844 | 103.98965 | 24 ft | 21 kts | 96° |
| 2026-04-25 15:26 | 10.16829 | 103.99119 | 26 ft | 23 kts | 95° |
| 2026-04-25 15:27 | 10.16813 | 103.99286 | 26 ft | 25 kts | 95° |
| 2026-04-25 15:27 | 10.16795 | 103.99466 | 27 ft | 26 kts | 96° |
| 2026-04-25 15:27 | 10.16759 | 103.99823 | 27 ft | 15 kts | 102° |
| 2026-04-25 15:28 | 10.16684 | 103.99855 | 27 ft | 14 kts | 183° |
| 2026-04-25 15:28 | 10.16580 | 103.99845 | 27 ft | 14 kts | 186° |
| 2026-04-25 15:28 | 10.16518 | 103.99807 | 27 ft | 9 kts | 239° |
| 2026-04-25 15:28 | 10.16463 | 103.99784 | 27 ft | 8 kts | 187° |
| 2026-04-25 15:29 | 10.16435 | 103.99781 | 27 ft | 2 kts | 187° |
| 2026-04-25 15:29 | 10.16434 | 103.99781 | 27 ft | 0 kts | 187° |